createdAt,value
2022-11-06T00:01:37.275Z,78.18
2022-11-06T00:04:06.457Z,78.24
2022-11-06T00:06:50.879Z,77.87
2022-11-06T00:09:21.012Z,77.68
2022-11-06T00:11:48.214Z,77.42
2022-11-06T00:14:14.820Z,77.49
2022-11-06T00:16:41.710Z,77.86
2022-11-06T00:19:09.909Z,77.74
2022-11-06T00:21:36.601Z,77.68
2022-11-06T00:24:04.484Z,77.50
2022-11-06T00:26:31.345Z,77.39
2022-11-06T00:28:58.553Z,77.69
2022-11-06T00:31:26.110Z,77.76
2022-11-06T00:33:53.186Z,77.21
2022-11-06T00:36:21.399Z,77.20
2022-11-06T00:38:48.203Z,77.16
2022-11-06T00:41:15.364Z,77.38
2022-11-06T00:43:44.202Z,77.51
2022-11-06T00:46:11.718Z,77.40
2022-11-06T00:48:38.661Z,77.61
2022-11-06T00:51:05.971Z,77.71
2022-11-06T00:53:32.504Z,75.81
2022-11-06T00:56:09.690Z,75.24
2022-11-06T00:58:36.376Z,74.78
2022-11-06T01:01:09.899Z,75.31
2022-11-06T01:03:36.907Z,75.69
2022-11-06T01:06:07.140Z,75.95
2022-11-06T01:08:33.742Z,76.16
2022-11-06T01:11:05.972Z,76.93
2022-11-06T01:13:32.554Z,77.43
2022-11-06T01:15:59.192Z,78.13
2022-11-06T01:18:25.719Z,78.03
2022-11-06T01:20:52.208Z,78.33
2022-11-06T01:23:18.788Z,78.38
2022-11-06T01:25:45.273Z,78.61
2022-11-06T01:28:12.131Z,78.82
2022-11-06T01:30:38.965Z,78.78
2022-11-06T01:33:05.518Z,78.44
2022-11-06T01:35:32.036Z,78.99
2022-11-06T01:37:58.625Z,79.04
2022-11-06T01:40:25.243Z,78.61
2022-11-06T01:42:51.949Z,77.79
2022-11-06T01:45:27.075Z,77.03
2022-11-06T01:47:53.637Z,76.96
2022-11-06T01:50:20.619Z,77.31
2022-11-06T01:52:47.457Z,77.30
2022-11-06T01:55:16.239Z,77.86
2022-11-06T01:57:42.795Z,78.59
2022-11-06T02:00:09.652Z,78.61
2022-11-06T02:02:36.297Z,79.03
2022-11-06T02:05:03.018Z,78.63
2022-11-06T02:07:29.613Z,78.56
2022-11-06T02:09:56.253Z,78.64
2022-11-06T02:12:41.330Z,78.59
2022-11-06T02:15:19.806Z,78.63
2022-11-06T02:17:46.325Z,78.61
2022-11-06T02:20:31.553Z,78.72
2022-11-06T02:22:58.106Z,78.72
2022-11-06T02:25:43.565Z,78.57
2022-11-06T02:28:15.488Z,78.10
2022-11-06T02:30:43.568Z,78.44
2022-11-06T02:33:11.390Z,78.32
2022-11-06T02:35:49.328Z,78.60
2022-11-06T02:38:23.245Z,78.95
2022-11-06T02:40:51.680Z,78.80
2022-11-06T02:43:18.277Z,79.01
2022-11-06T02:45:49.214Z,78.75
2022-11-06T02:48:16.210Z,78.82
2022-11-06T02:50:43.797Z,78.96
2022-11-06T02:53:10.372Z,79.01
2022-11-06T02:55:42.421Z,78.76
2022-11-06T02:58:09.878Z,78.83
2022-11-06T03:00:36.551Z,79.07
2022-11-06T03:03:06.019Z,78.96
2022-11-06T03:05:35.712Z,79.00
2022-11-06T03:08:08.114Z,79.34
2022-11-06T03:10:38.129Z,79.47
2022-11-06T03:13:24.943Z,79.53
2022-11-06T03:16:05.616Z,79.16
2022-11-06T03:18:37.096Z,79.78
2022-11-06T03:21:06.691Z,79.36
2022-11-06T03:23:53.845Z,79.26
2022-11-06T03:26:22.113Z,79.51
2022-11-06T03:28:49.043Z,79.64
2022-11-06T03:31:16.111Z,79.11
2022-11-06T03:33:50.213Z,79.36
2022-11-06T03:36:20.731Z,79.06
2022-11-06T03:38:49.011Z,79.22
2022-11-06T03:41:20.472Z,79.30
2022-11-06T03:43:47.613Z,79.21
2022-11-06T03:46:16.686Z,79.20
2022-11-06T03:48:48.107Z,79.46
2022-11-06T03:51:16.568Z,79.29
2022-11-06T03:53:46.026Z,78.85
2022-11-06T03:56:14.835Z,78.95
2022-11-06T03:58:42.852Z,78.67
2022-11-06T04:01:09.953Z,78.67
2022-11-06T04:03:44.343Z,78.54
2022-11-06T04:06:15.843Z,78.40
2022-11-06T04:09:01.191Z,78.88
2022-11-06T04:11:46.544Z,78.98
2022-11-06T04:14:14.288Z,78.77
2022-11-06T04:16:45.988Z,78.05
2022-11-06T04:19:14.438Z,77.71
2022-11-06T04:22:04.249Z,77.85
2022-11-06T04:25:07.899Z,77.99
2022-11-06T04:27:48.748Z,78.18
2022-11-06T04:30:15.613Z,78.32
2022-11-06T04:33:02.274Z,78.38
2022-11-06T04:35:44.386Z,78.12
2022-11-06T04:38:11.148Z,78.01
2022-11-06T04:41:13.222Z,78.33
2022-11-06T04:43:52.678Z,77.68
2022-11-06T04:46:23.760Z,77.57
2022-11-06T04:48:50.324Z,77.45
2022-11-06T04:51:16.900Z,78.08
2022-11-06T04:53:43.429Z,78.09
2022-11-06T04:56:11.478Z,78.39
2022-11-06T04:58:38.804Z,78.49
2022-11-06T05:01:05.578Z,77.84
2022-11-06T05:03:32.181Z,77.76
2022-11-06T05:05:58.689Z,77.84
2022-11-06T05:08:25.252Z,77.23
2022-11-06T05:10:51.757Z,77.44
2022-11-06T05:13:18.313Z,77.54
2022-11-06T05:15:44.814Z,76.59
2022-11-06T05:18:11.746Z,76.66
2022-11-06T05:20:38.450Z,76.23
2022-11-06T05:23:04.964Z,75.89
2022-11-06T05:25:32.747Z,75.91
2022-11-06T05:27:59.593Z,76.67
2022-11-06T05:30:26.496Z,77.52
2022-11-06T05:32:53.653Z,78.06
2022-11-06T05:35:20.403Z,77.61
2022-11-06T05:37:47.022Z,77.20
2022-11-06T05:40:13.631Z,77.31
2022-11-06T05:42:40.690Z,77.68
2022-11-06T05:45:07.587Z,78.22
2022-11-06T05:47:34.425Z,78.36
2022-11-06T05:50:00.986Z,78.53
2022-11-06T05:52:27.727Z,78.90
2022-11-06T05:54:54.243Z,79.47
2022-11-06T05:57:20.786Z,79.78
2022-11-06T05:59:47.277Z,79.17
2022-11-06T06:02:13.996Z,79.39
2022-11-06T06:04:40.740Z,79.51
2022-11-06T06:07:07.790Z,79.58
2022-11-06T06:09:34.283Z,78.26
2022-11-06T06:12:00.893Z,78.10
2022-11-06T06:14:27.464Z,79.90
2022-11-06T06:16:54.096Z,80.18
2022-11-06T06:19:20.757Z,79.84
2022-11-06T06:21:47.268Z,79.71
2022-11-06T06:24:13.859Z,80.83
2022-11-06T06:26:40.428Z,80.35
2022-11-06T06:29:07.068Z,80.68
2022-11-06T06:31:33.742Z,80.64
2022-11-06T06:34:00.311Z,80.70
2022-11-06T06:36:26.904Z,80.72
2022-11-06T06:38:54.211Z,80.63
2022-11-06T06:41:20.848Z,80.60
2022-11-06T06:43:47.812Z,80.32
2022-11-06T06:46:14.378Z,80.15
2022-11-06T06:48:40.964Z,80.05
2022-11-06T06:51:10.425Z,80.29
2022-11-06T06:53:38.097Z,80.36
2022-11-06T06:56:09.205Z,80.46
2022-11-06T06:58:36.060Z,80.03
2022-11-06T07:01:04.582Z,79.77
2022-11-06T07:03:31.416Z,79.85
2022-11-06T07:05:58.789Z,80.24
2022-11-06T07:08:28.958Z,79.91
2022-11-06T07:11:02.217Z,79.79
2022-11-06T07:13:34.389Z,79.96
2022-11-06T07:16:03.649Z,79.87
2022-11-06T07:18:30.295Z,79.70
2022-11-06T07:20:57.995Z,79.85
2022-11-06T07:23:24.769Z,79.31
2022-11-06T07:25:54.634Z,79.14
2022-11-06T07:28:24.393Z,78.95
2022-11-06T07:30:50.960Z,79.35
2022-11-06T07:33:20.876Z,79.38
2022-11-06T07:35:53.066Z,79.29
2022-11-06T07:38:21.954Z,79.24
2022-11-06T07:40:48.663Z,78.70
2022-11-06T07:43:15.569Z,78.67
2022-11-06T07:45:42.196Z,78.49
2022-11-06T07:48:13.059Z,78.47
2022-11-06T07:50:44.943Z,77.71
2022-11-06T07:53:12.127Z,77.94
2022-11-06T07:55:42.157Z,77.82
2022-11-06T07:58:09.184Z,78.16
2022-11-06T08:00:35.773Z,77.72
2022-11-06T08:03:04.424Z,78.29
2022-11-06T08:05:33.676Z,78.63
2022-11-06T08:08:00.388Z,78.67
2022-11-06T08:10:29.691Z,79.13
2022-11-06T08:13:09.680Z,79.83
2022-11-06T08:15:40.081Z,80.10
2022-11-06T08:18:08.513Z,79.60
2022-11-06T08:20:35.630Z,79.71
2022-11-06T08:23:02.935Z,79.63
2022-11-06T08:25:29.688Z,79.50
2022-11-06T08:27:56.925Z,79.31
2022-11-06T08:30:23.446Z,79.30
2022-11-06T08:32:54.212Z,79.27
2022-11-06T08:35:20.709Z,79.19
2022-11-06T08:37:47.336Z,79.33
2022-11-06T08:40:13.949Z,79.00
2022-11-06T08:42:40.490Z,78.79
2022-11-06T08:45:07.280Z,77.96
2022-11-06T08:47:33.900Z,77.21
2022-11-06T08:50:00.429Z,76.99
2022-11-06T08:52:32.784Z,77.42
2022-11-06T08:55:00.503Z,77.95
2022-11-06T08:57:27.400Z,78.08
2022-11-06T08:59:53.987Z,78.25
2022-11-06T09:02:20.648Z,77.75
2022-11-06T09:04:47.300Z,78.67
2022-11-06T09:07:13.854Z,78.49
2022-11-06T09:09:40.428Z,78.48
2022-11-06T09:12:07.155Z,78.05
2022-11-06T09:14:34.078Z,77.98
2022-11-06T09:17:04.319Z,78.00
2022-11-06T09:19:31.191Z,78.00
2022-11-06T09:21:57.733Z,77.40
2022-11-06T09:24:49.647Z,77.40
2022-11-06T09:27:11.028Z,77.38
2022-11-06T09:29:40.966Z,77.84
2022-11-06T09:32:07.734Z,77.98
2022-11-06T09:34:34.276Z,78.02
2022-11-06T09:37:02.040Z,78.22
2022-11-06T09:39:28.617Z,78.34
2022-11-06T09:41:58.993Z,78.22
2022-11-06T09:44:45.070Z,78.04
2022-11-06T09:47:14.755Z,77.72
2022-11-06T09:49:51.093Z,77.78
2022-11-06T09:52:26.862Z,77.21
2022-11-06T09:55:00.109Z,77.32
2022-11-06T09:57:43.547Z,77.22
2022-11-06T10:00:14.322Z,77.19
2022-11-06T10:02:42.333Z,77.07
2022-11-06T10:05:14.547Z,77.02
2022-11-06T10:07:41.397Z,76.53
2022-11-06T10:10:08.672Z,76.52
2022-11-06T10:12:42.634Z,76.64
2022-11-06T10:15:09.187Z,76.04
2022-11-06T10:17:39.768Z,75.39
2022-11-06T10:20:06.305Z,74.70
2022-11-06T10:22:42.658Z,75.15
2022-11-06T10:25:22.670Z,75.16
2022-11-06T10:27:56.214Z,75.98
2022-11-06T10:30:22.750Z,75.45
2022-11-06T10:32:49.307Z,75.27
2022-11-06T10:35:18.130Z,75.69
2022-11-06T10:37:46.860Z,76.61
2022-11-06T10:40:20.873Z,75.95
2022-11-06T10:42:49.123Z,75.57
2022-11-06T10:45:16.163Z,76.02
2022-11-06T10:47:44.009Z,75.01
2022-11-06T10:50:14.831Z,75.40
2022-11-06T10:52:43.095Z,73.37
2022-11-06T10:55:19.079Z,73.39
2022-11-06T10:57:47.115Z,73.22
2022-11-06T11:00:15.334Z,72.57
2022-11-06T11:02:46.500Z,72.85
2022-11-06T11:05:17.201Z,73.21
2022-11-06T11:07:44.912Z,73.77
2022-11-06T11:10:27.339Z,73.69
2022-11-06T11:12:54.637Z,72.99
2022-11-06T11:15:25.007Z,72.87
2022-11-06T11:18:12.234Z,72.96
2022-11-06T11:20:40.128Z,72.76
2022-11-06T11:23:17.667Z,73.07
2022-11-06T11:25:45.209Z,72.84
2022-11-06T11:28:22.172Z,73.17
2022-11-06T11:30:52.753Z,72.72
2022-11-06T11:33:20.153Z,72.61
2022-11-06T11:35:48.194Z,72.64
2022-11-06T11:38:15.485Z,71.92
2022-11-06T11:40:42.807Z,71.61
2022-11-06T11:43:28.257Z,71.60
2022-11-06T11:46:10.124Z,71.86
2022-11-06T11:48:43.598Z,71.23
2022-11-06T11:51:13.159Z,71.20
2022-11-06T11:53:39.737Z,71.16
2022-11-06T11:56:06.395Z,70.67
2022-11-06T11:58:33.197Z,70.13
2022-11-06T12:00:59.740Z,71.13
2022-11-06T12:03:31.591Z,71.24
2022-11-06T12:06:08.475Z,70.81
2022-11-06T12:08:35.033Z,70.43
2022-11-06T12:11:04.719Z,69.08
2022-11-06T12:13:31.426Z,69.51
2022-11-06T12:15:58.046Z,68.88
2022-11-06T12:18:39.224Z,69.91
2022-11-06T12:21:05.673Z,70.00
2022-11-06T12:23:36.198Z,70.14
2022-11-06T12:26:24.319Z,69.04
2022-11-06T12:28:51.232Z,68.62
2022-11-06T12:31:20.165Z,68.99
2022-11-06T12:34:05.668Z,69.27
2022-11-06T12:36:39.358Z,67.05
2022-11-06T12:39:06.628Z,68.84
2022-11-06T12:41:37.911Z,68.21
2022-11-06T12:44:04.509Z,69.08
2022-11-06T12:46:50.026Z,68.45
2022-11-06T12:49:25.824Z,68.83
2022-11-06T12:52:04.698Z,68.78
2022-11-06T12:54:37.728Z,68.48
2022-11-06T12:57:20.902Z,67.72
2022-11-06T13:00:03.997Z,69.24
2022-11-06T13:02:30.707Z,68.86
2022-11-06T13:05:16.153Z,69.18
2022-11-06T13:07:42.725Z,69.72
2022-11-06T13:10:09.402Z,69.67
2022-11-06T13:12:42.033Z,69.79
2022-11-06T13:15:17.646Z,69.19
2022-11-06T13:17:52.898Z,69.72
2022-11-06T13:20:28.420Z,69.63
2022-11-06T13:23:15.553Z,69.53
2022-11-06T13:25:44.704Z,68.94
2022-11-06T13:28:14.576Z,68.17
2022-11-06T13:30:41.342Z,67.47
2022-11-06T13:33:11.910Z,67.21
2022-11-06T13:35:39.485Z,68.08
2022-11-06T13:38:11.615Z,67.32
2022-11-06T13:40:44.639Z,67.91
2022-11-06T13:43:31.781Z,67.65
2022-11-06T13:46:16.778Z,67.33
2022-11-06T13:48:43.722Z,68.16
2022-11-06T13:51:26.092Z,67.87
2022-11-06T13:54:09.767Z,68.17
2022-11-06T13:56:36.294Z,67.00
2022-11-06T13:59:11.837Z,68.17
2022-11-06T14:01:55.349Z,67.94
2022-11-06T14:04:41.225Z,67.13
2022-11-06T14:07:07.753Z,66.19
2022-11-06T14:09:34.393Z,67.39
2022-11-06T14:12:02.203Z,66.68
2022-11-06T14:14:30.601Z,67.72
2022-11-06T14:17:15.557Z,67.69
2022-11-06T14:19:59.794Z,66.76
2022-11-06T14:22:29.365Z,67.19
2022-11-06T14:25:01.289Z,67.16
2022-11-06T14:27:28.877Z,67.69
2022-11-06T14:29:56.232Z,66.70
2022-11-06T14:32:36.414Z,66.75
2022-11-06T14:35:22.005Z,67.76
2022-11-06T14:37:48.726Z,67.83
2022-11-06T14:40:15.398Z,67.36
2022-11-06T14:42:42.669Z,67.47
2022-11-06T14:45:16.554Z,67.88
2022-11-06T14:47:46.488Z,67.96
2022-11-06T14:50:19.243Z,68.33
2022-11-06T14:52:45.911Z,68.76
2022-11-06T14:55:38.686Z,68.75
2022-11-06T14:58:12.729Z,68.85
2022-11-06T15:00:44.617Z,68.81
2022-11-06T15:03:30.181Z,68.54
2022-11-06T15:05:59.674Z,69.18
2022-11-06T15:08:58.695Z,68.44
2022-11-06T15:11:32.512Z,68.56
2022-11-06T15:14:06.149Z,69.26
2022-11-06T15:16:44.356Z,68.83
2022-11-06T15:19:15.973Z,69.57
2022-11-06T15:21:43.472Z,69.54
2022-11-06T15:24:12.875Z,69.23
2022-11-06T15:26:39.575Z,69.38
2022-11-06T15:29:32.390Z,69.38
2022-11-06T15:32:03.303Z,69.79
2022-11-06T15:34:30.986Z,70.32
2022-11-06T15:37:09.505Z,69.85
2022-11-06T15:39:40.961Z,70.20
2022-11-06T15:42:08.570Z,70.73
2022-11-06T15:44:38.050Z,70.63
2022-11-06T15:47:04.705Z,70.60
2022-11-06T15:49:31.459Z,70.70
2022-11-06T15:52:01.742Z,70.89
2022-11-06T15:54:38.848Z,71.38
2022-11-06T15:57:08.812Z,71.45
2022-11-06T15:59:35.364Z,71.47
2022-11-06T16:02:04.336Z,71.53
2022-11-06T16:04:31.134Z,71.54
2022-11-06T16:06:57.640Z,71.74
2022-11-06T16:09:26.639Z,71.78
2022-11-06T16:11:53.304Z,72.65
2022-11-06T16:14:20.132Z,72.30
2022-11-06T16:16:53.341Z,72.05
2022-11-06T16:19:24.799Z,72.16
2022-11-06T16:21:53.003Z,72.10
2022-11-06T16:24:19.595Z,72.22
2022-11-06T16:26:47.243Z,72.42
2022-11-06T16:29:18.002Z,72.59
2022-11-06T16:31:44.670Z,72.82
2022-11-06T16:34:45.977Z,73.18
2022-11-06T16:37:18.466Z,72.79
2022-11-06T16:39:49.321Z,72.75
2022-11-06T16:42:22.725Z,72.36
2022-11-06T16:44:49.855Z,73.21
2022-11-06T16:47:20.166Z,72.50
2022-11-06T16:49:53.881Z,71.99
2022-11-06T16:52:23.977Z,71.52
2022-11-06T16:54:51.813Z,71.06
2022-11-06T16:57:22.113Z,71.07
2022-11-06T17:00:02.343Z,71.37
2022-11-06T17:02:29.974Z,71.19
2022-11-06T17:05:06.639Z,71.45
2022-11-06T17:07:33.147Z,70.58
2022-11-06T17:10:19.637Z,70.55
2022-11-06T17:12:46.585Z,70.18
2022-11-06T17:15:13.117Z,70.49
2022-11-06T17:17:40.162Z,70.33
2022-11-06T17:20:12.103Z,70.11
2022-11-06T17:22:38.624Z,70.59
2022-11-06T17:25:05.481Z,71.07
2022-11-06T17:27:32.089Z,70.28
2022-11-06T17:29:58.629Z,70.93
2022-11-06T17:32:25.158Z,70.67
2022-11-06T17:34:51.643Z,70.78
2022-11-06T17:37:22.025Z,70.18
2022-11-06T17:39:48.765Z,69.40
2022-11-06T17:42:15.309Z,69.60
2022-11-06T17:44:41.819Z,69.40
2022-11-06T17:47:08.467Z,69.69
2022-11-06T17:49:35.008Z,69.78
2022-11-06T17:52:01.656Z,69.81
2022-11-06T17:54:32.598Z,70.16
2022-11-06T17:57:00.392Z,70.73
2022-11-06T17:59:26.920Z,69.74
2022-11-06T18:01:54.248Z,69.21
2022-11-06T18:04:23.315Z,69.41
2022-11-06T18:06:51.045Z,68.89
2022-11-06T18:09:17.769Z,69.33
2022-11-06T18:11:44.468Z,70.05
2022-11-06T18:14:11.593Z,70.58
2022-11-06T18:16:43.405Z,70.14
2022-11-06T18:19:11.368Z,69.87
2022-11-06T18:21:37.889Z,69.74
2022-11-06T18:24:04.697Z,70.85
2022-11-06T18:26:31.360Z,70.89
2022-11-06T18:28:57.937Z,71.94
2022-11-06T18:31:24.619Z,71.85
2022-11-06T18:33:51.283Z,72.01
2022-11-06T18:36:17.867Z,71.76
2022-11-06T18:38:44.513Z,71.66
2022-11-06T18:41:12.099Z,72.06
2022-11-06T18:43:39.054Z,72.01
2022-11-06T18:46:07.475Z,70.76
2022-11-06T18:48:34.224Z,71.93
2022-11-06T18:51:07.434Z,72.91
2022-11-06T18:53:33.969Z,72.81
2022-11-06T18:56:00.618Z,72.19
2022-11-06T18:58:27.134Z,73.25
2022-11-06T19:00:57.549Z,72.76
2022-11-06T19:03:27.128Z,71.57
2022-11-06T19:05:53.691Z,71.70
2022-11-06T19:08:20.414Z,71.96
2022-11-06T19:10:46.953Z,71.30
2022-11-06T19:13:13.647Z,71.52
2022-11-06T19:15:40.170Z,71.57
2022-11-06T19:18:07.045Z,71.21
2022-11-06T19:20:33.598Z,72.31
2022-11-06T19:23:00.141Z,71.72
2022-11-06T19:25:26.712Z,71.32
2022-11-06T19:27:54.333Z,70.12
2022-11-06T19:30:20.976Z,69.60
2022-11-06T19:32:47.635Z,70.90
2022-11-06T19:35:15.682Z,71.96
2022-11-06T19:37:42.296Z,71.74
2022-11-06T19:40:08.964Z,71.76
2022-11-06T19:42:35.567Z,72.83
2022-11-06T19:45:02.183Z,72.63
2022-11-06T19:47:28.736Z,71.90
2022-11-06T19:49:55.243Z,71.90
2022-11-06T19:52:41.829Z,72.38
2022-11-06T19:55:25.753Z,72.49
2022-11-06T19:57:54.811Z,72.59
2022-11-06T20:00:21.315Z,72.82
2022-11-06T20:02:51.193Z,72.82
2022-11-06T20:05:18.077Z,71.69
2022-11-06T20:07:44.649Z,69.65
2022-11-06T20:10:11.552Z,69.45
2022-11-06T20:12:38.137Z,69.46
2022-11-06T20:15:04.909Z,68.96
2022-11-06T20:17:31.588Z,68.61
2022-11-06T20:19:58.414Z,68.76
2022-11-06T20:22:25.523Z,68.78
2022-11-06T20:24:52.536Z,68.55
2022-11-06T20:27:19.528Z,68.64
2022-11-06T20:29:46.094Z,68.92
2022-11-06T20:32:18.653Z,69.02
2022-11-06T20:34:45.844Z,69.65
2022-11-06T20:37:12.477Z,69.70
2022-11-06T20:39:39.022Z,69.74
2022-11-06T20:42:05.606Z,69.90
2022-11-06T20:44:32.342Z,69.83
2022-11-06T20:46:59.074Z,69.70
2022-11-06T20:49:25.646Z,69.57
2022-11-06T20:52:13.274Z,68.86
2022-11-06T20:54:43.737Z,68.65
2022-11-06T20:57:13.170Z,68.90
2022-11-06T20:59:39.656Z,68.57
2022-11-06T21:02:06.466Z,68.26
2022-11-06T21:04:33.078Z,67.97
2022-11-06T21:06:59.597Z,67.61
2022-11-06T21:09:26.210Z,67.15
2022-11-06T21:11:52.751Z,67.81
2022-11-06T21:14:19.274Z,67.66
2022-11-06T21:16:46.278Z,68.41
2022-11-06T21:19:13.086Z,67.87
2022-11-06T21:21:39.808Z,67.12
2022-11-06T21:24:06.578Z,67.28
2022-11-06T21:26:34.385Z,66.85
2022-11-06T21:29:01.482Z,67.20
2022-11-06T21:31:28.590Z,67.91
2022-11-06T21:33:56.299Z,68.08
2022-11-06T21:36:25.252Z,68.44
2022-11-06T21:38:52.105Z,68.04
2022-11-06T21:41:20.878Z,68.73
2022-11-06T21:43:50.598Z,69.58
2022-11-06T21:46:17.495Z,69.22
2022-11-06T21:48:46.831Z,69.59
2022-11-06T21:51:24.358Z,70.83
2022-11-06T21:54:09.841Z,69.71
2022-11-06T21:56:36.552Z,69.07
2022-11-06T21:59:03.755Z,68.48
2022-11-06T22:01:30.679Z,67.94
2022-11-06T22:03:57.387Z,68.11
2022-11-06T22:06:25.215Z,68.33
2022-11-06T22:08:52.481Z,67.58
2022-11-06T22:11:20.176Z,67.46
2022-11-06T22:13:47.335Z,67.49
2022-11-06T22:16:14.569Z,67.33
2022-11-06T22:18:41.266Z,67.85
2022-11-06T22:21:15.558Z,67.04
2022-11-06T22:23:42.570Z,67.55
2022-11-06T22:26:10.450Z,67.07
2022-11-06T22:28:36.973Z,66.10
2022-11-06T22:31:03.892Z,65.42
2022-11-06T22:33:31.169Z,64.84
2022-11-06T22:36:05.521Z,64.22
2022-11-06T22:38:32.462Z,63.88
2022-11-06T22:40:59.657Z,65.76
2022-11-06T22:43:26.472Z,66.13
2022-11-06T22:46:02.956Z,67.11
2022-11-06T22:48:30.212Z,65.24
2022-11-06T22:50:57.109Z,65.57
2022-11-06T22:53:23.873Z,65.66
2022-11-06T22:55:54.638Z,65.16
2022-11-06T22:58:21.321Z,65.40
2022-11-06T23:00:51.535Z,66.39
2022-11-06T23:03:19.034Z,66.51
2022-11-06T23:05:46.185Z,66.32
2022-11-06T23:08:15.012Z,66.83
2022-11-06T23:10:42.473Z,67.08
2022-11-06T23:13:09.472Z,66.99
2022-11-06T23:15:36.756Z,67.97
2022-11-06T23:18:03.828Z,68.67
2022-11-06T23:20:33.337Z,67.74
2022-11-06T23:23:00.771Z,68.44
2022-11-06T23:25:27.543Z,68.74
2022-11-06T23:27:54.103Z,69.79
2022-11-06T23:30:20.779Z,70.78
2022-11-06T23:32:47.514Z,71.75
2022-11-06T23:35:16.868Z,70.96
2022-11-06T23:37:43.733Z,70.92
2022-11-06T23:40:10.698Z,71.21
2022-11-06T23:42:37.357Z,71.74
2022-11-06T23:45:24.262Z,71.73
2022-11-06T23:47:50.978Z,71.82
2022-11-06T23:50:17.767Z,71.89
2022-11-06T23:52:44.969Z,72.03
2022-11-06T23:55:11.576Z,71.51
2022-11-06T23:57:38.150Z,72.42
